Time;durP1;ratioP1;P1;durP2;ratioP2;P2;SDS_P1;SDS_P2;PMS_P1;PMS_P2;Temp;Humidity;BMP_temperature;BMP_pressure;BME280_temperature;BME280_humidity;BME280_pressure;Samples;Min_cycle;Max_cycle;Signal;HPM_P1;HPM_P2
2021/08/12 00:01:32;;;;;;;9.13;5.63;;;;;;;18.93;71.25;97402.33;126881;1095;62613;-78
2021/08/12 00:03:59;;;;;;;7.70;5.73;;;;;;;18.90;71.41;97406.14;126983;1095;62572;-77
2021/08/12 00:06:26;;;;;;;9.63;5.60;;;;;;;18.87;71.31;97401.53;126891;1095;62619;-79
2021/08/12 00:08:53;;;;;;;9.10;5.23;;;;;;;18.81;71.48;97400.69;127026;1095;62761;-76
2021/08/12 00:11:20;;;;;;;8.75;5.30;;;;;;;18.76;71.66;97404.22;126935;1095;62609;-76
2021/08/12 00:13:47;;;;;;;9.07;5.37;;;;;;;18.69;71.62;97399.06;127096;1095;63069;-72
2021/08/12 00:16:14;;;;;;;8.97;5.40;;;;;;;18.66;71.65;97411.25;127058;1095;62556;-74
2021/08/12 00:18:55;;;;;;;10.23;5.27;;;;;;;18.64;71.63;97403.34;126900;1095;62553;-76
2021/08/12 00:21:42;;;;;;;9.00;5.53;;;;;;;18.62;71.42;97405.07;126961;1095;62633;-76
2021/08/12 00:24:09;;;;;;;7.80;4.97;;;;;;;18.59;71.46;97409.64;127193;1094;62700;-81
2021/08/12 00:26:36;;;;;;;7.30;5.03;;;;;;;18.58;71.79;97404.53;127090;1095;62613;-72
2021/08/12 00:29:06;;;;;;;7.93;5.13;;;;;;;18.55;71.54;97405.52;126644;1095;62690;-79
2021/08/12 00:31:33;;;;;;;10.35;5.58;;;;;;;18.52;71.56;97407.29;126722;1095;62563;-70
2021/08/12 00:34:00;;;;;;;7.90;5.23;;;;;;;18.52;71.50;97417.73;126894;1095;62706;-74
2021/08/12 00:36:35;;;;;;;9.27;5.70;;;;;;;18.52;71.62;97428.95;126992;1095;62608;-76
2021/08/12 00:39:02;;;;;;;11.43;5.80;;;;;;;18.50;71.69;97421.03;127012;1095;62620;-75
2021/08/12 00:41:35;;;;;;;8.90;5.50;;;;;;;18.51;71.83;97410.59;127097;1095;63002;-76
2021/08/12 00:44:02;;;;;;;10.23;5.97;;;;;;;18.49;71.57;97413.09;126891;1095;62605;-78
2021/08/12 00:46:29;;;;;;;8.93;6.27;;;;;;;18.52;71.37;97417.73;127112;1095;62613;-75
2021/08/12 00:48:56;;;;;;;7.87;5.20;;;;;;;18.53;71.41;97408.05;126970;1095;62716;-78
2021/08/12 00:51:23;;;;;;;8.90;5.93;;;;;;;18.50;71.37;97397.84;127130;1095;62607;-82
2021/08/12 00:54:10;;;;;;;12.00;5.60;;;;;;;18.49;71.25;97408.28;126790;1095;62575;-72
2021/08/12 00:56:38;;;;;;;8.03;5.90;;;;;;;18.51;71.62;97404.98;126915;1095;62652;-81
2021/08/12 00:59:07;;;;;;;9.93;6.20;;;;;;;18.50;71.17;97397.84;126969;1095;62591;-71
2021/08/12 01:01:34;;;;;;;9.10;5.70;;;;;;;18.51;71.40;97404.98;126839;1095;62740;-81
2021/08/12 01:04:01;;;;;;;11.50;5.97;;;;;;;18.50;71.84;97403.44;127081;1095;62604;-81
2021/08/12 01:06:32;;;;;;;12.93;5.40;;;;;;;18.46;71.77;97402.87;127139;1095;62633;-74
2021/08/12 01:09:10;;;;;;;10.23;5.73;;;;;;;18.43;71.91;97402.59;127103;1095;62819;-75
2021/08/12 01:11:50;;;;;;;11.27;6.00;;;;;;;18.35;71.96;97398.70;126662;1095;62619;-77
2021/08/12 01:14:23;;;;;;;9.00;5.83;;;;;;;18.33;72.13;97401.23;127056;1095;62697;-79
2021/08/12 01:17:01;;;;;;;12.65;6.00;;;;;;;18.31;72.26;97414.17;126987;1095;62603;-78
2021/08/12 01:19:46;;;;;;;9.70;5.40;;;;;;;18.26;72.54;97415.66;126961;1095;62607;-77
2021/08/12 01:22:15;;;;;;;8.37;5.43;;;;;;;18.21;72.61;97410.77;127060;1095;62572;-77
2021/08/12 01:24:43;;;;;;;9.17;6.07;;;;;;;18.19;72.41;97413.30;126674;1095;62661;-78
2021/08/12 01:27:31;;;;;;;8.27;4.90;;;;;;;18.19;72.77;97407.69;126900;1095;62652;-77
2021/08/12 01:30:44;;;;;;;6.97;4.37;;;;;;;18.18;72.77;97408.19;126929;1095;62648;-74
2021/08/12 01:33:30;;;;;;;7.90;5.70;;;;;;;18.14;72.47;97405.61;127104;1095;62645;-82
2021/08/12 01:36:02;;;;;;;9.40;5.77;;;;;;;18.13;72.43;97401.23;127067;1095;62642;-71
2021/08/12 01:38:29;;;;;;;9.77;6.13;;;;;;;18.11;72.50;97406.56;126973;1095;62993;-78
2021/08/12 01:40:57;;;;;;;8.03;5.60;;;;;;;18.09;72.40;97403.48;126891;1095;62674;-75
2021/08/12 01:43:24;;;;;;;7.70;5.43;;;;;;;18.09;72.74;97409.09;127130;1095;62604;-79
2021/08/12 01:45:55;;;;;;;7.10;5.07;;;;;;;18.05;72.93;97408.54;126866;1095;62575;-74
2021/08/12 01:48:23;;;;;;;7.27;5.00;;;;;;;18.02;72.80;97410.30;126918;1095;62562;-78
2021/08/12 01:50:51;;;;;;;10.90;5.83;;;;;;;17.99;73.10;97410.52;126861;1095;62613;-78
2021/08/12 01:53:19;;;;;;;7.57;5.03;;;;;;;17.97;73.17;97418.64;126682;1095;62709;-76
2021/08/12 01:55:46;;;;;;;9.10;6.17;;;;;;;17.93;72.99;97409.66;126833;1095;62646;-77
2021/08/12 01:58:15;;;;;;;10.00;5.70;;;;;;;17.91;73.03;97410.14;126792;1095;62609;-77
2021/08/12 02:01:02;;;;;;;11.30;5.70;;;;;;;17.90;73.19;97416.23;126897;1095;62642;-78
2021/08/12 02:03:47;;;;;;;8.47;5.17;;;;;;;17.91;73.34;97418.55;126946;1095;62758;-82
2021/08/12 02:06:19;;;;;;;7.80;5.20;;;;;;;17.87;73.32;97420.02;127040;1095;62607;-78
2021/08/12 02:08:46;;;;;;;10.97;6.03;;;;;;;17.86;73.27;97418.48;126970;1095;62594;-74
2021/08/12 02:11:13;;;;;;;11.13;5.70;;;;;;;17.84;73.17;97416.18;126921;1095;62565;-80
2021/08/12 02:13:40;;;;;;;8.47;5.73;;;;;;;17.85;73.23;97416.95;127142;1095;62665;-77
2021/08/12 02:16:09;;;;;;;8.77;5.70;;;;;;;17.83;73.12;97411.06;127090;1095;62606;-77
2021/08/12 02:18:40;;;;;;;8.28;5.18;;;;;;;17.83;73.40;97408.27;127008;1095;62556;-81
2021/08/12 02:21:17;;;;;;;11.40;5.43;;;;;;;17.79;73.40;97409.25;126952;1095;62607;-72
2021/08/12 02:23:55;;;;;;;8.10;4.90;;;;;;;17.77;73.37;97417.38;127135;1095;62617;-82
2021/08/12 02:26:22;;;;;;;10.70;5.77;;;;;;;17.70;73.29;97417.77;126945;1095;62674;-77
2021/08/12 02:28:49;;;;;;;12.13;5.80;;;;;;;17.67;73.49;97418.72;126693;1095;62664;-75
2021/08/12 02:31:17;;;;;;;10.30;6.50;;;;;;;17.64;73.47;97418.94;126885;1095;62971;-87
2021/08/12 02:33:45;;;;;;;9.67;5.47;;;;;;;17.62;73.75;97422.23;127118;1095;62623;-80
2021/08/12 02:36:40;;;;;;;10.47;5.57;;;;;;;17.59;73.78;97420.38;127109;1095;62606;-81
2021/08/12 02:40:07;;;;;;;7.30;5.50;;;;;;;17.56;74.02;97424.16;126945;1095;62592;-77
2021/08/12 02:42:37;;;;;;;9.23;5.70;;;;;;;17.55;74.01;97433.81;126945;1095;62669;-71
2021/08/12 02:45:05;;;;;;;13.83;6.43;;;;;;;17.50;74.08;97431.71;127060;1094;62604;-83
2021/08/12 02:47:33;;;;;;;7.73;5.50;;;;;;;17.49;74.27;97430.17;127037;1095;62623;-80
2021/08/12 02:50:00;;;;;;;10.00;5.60;;;;;;;17.47;74.39;97438.30;126766;1095;62601;-80
2021/08/12 02:52:27;;;;;;;8.63;6.13;;;;;;;17.46;74.18;97433.95;126886;1095;62579;-79
2021/08/12 02:55:14;;;;;;;8.13;6.00;;;;;;;17.46;74.23;97437.52;126779;1095;62671;-84
2021/08/12 02:57:40;;;;;;;8.73;5.67;;;;;;;17.47;74.08;97436.27;126939;1095;62706;-79
2021/08/12 03:00:08;;;;;;;8.27;5.53;;;;;;;17.47;74.04;97438.30;127138;1094;62626;-84
2021/08/12 03:02:35;;;;;;;9.43;6.40;;;;;;;17.45;74.20;97440.81;126934;1095;62637;-76
2021/08/12 03:05:02;;;;;;;11.63;6.13;;;;;;;17.44;74.01;97439.27;126766;1095;62739;-77
2021/08/12 03:07:29;;;;;;;10.33;6.30;;;;;;;17.45;73.93;97441.58;126695;1093;62596;-80
2021/08/12 03:10:39;;;;;;;10.60;5.93;;;;;;;17.47;74.13;97438.30;126862;1095;62855;-71
2021/08/12 03:13:43;;;;;;;11.43;6.00;;;;;;;17.49;74.12;97435.77;127090;1093;62627;-73
2021/08/12 03:16:11;;;;;;;7.23;5.13;;;;;;;17.50;73.75;97440.11;126707;1095;62632;-72
2021/08/12 03:18:38;;;;;;;7.87;5.50;;;;;;;17.51;74.01;97438.85;126724;1095;62583;-73
2021/08/12 03:21:06;;;;;;;8.37;5.73;;;;;;;17.48;73.83;97449.00;126590;1095;62675;-78
2021/08/12 03:23:33;;;;;;;10.43;6.20;;;;;;;17.47;73.97;97443.89;127060;1095;62744;-79
2021/08/12 03:26:00;;;;;;;13.97;6.27;;;;;;;17.45;73.72;97449.20;126955;1095;62603;-72
2021/08/12 03:28:42;;;;;;;9.50;5.65;;;;;;;17.47;73.86;97446.69;127059;1095;62607;-74
2021/08/12 03:31:09;;;;;;;8.80;5.90;;;;;;;17.43;73.85;97449.70;126736;1095;62598;-77
2021/08/12 03:33:37;;;;;;;9.20;6.03;;;;;;;17.43;73.94;97454.52;127081;1095;62983;-73
2021/08/12 03:36:04;;;;;;;10.83;5.53;;;;;;;17.43;74.14;97460.13;126927;1095;62575;-74
2021/08/12 03:38:34;;;;;;;9.70;6.47;;;;;;;17.43;73.80;97460.89;126945;1095;62604;-75
2021/08/12 03:41:01;;;;;;;8.70;5.28;;;;;;;17.41;73.88;97457.78;127028;1095;62592;-78
2021/08/12 03:44:08;;;;;;;11.93;6.30;;;;;;;17.44;73.73;97461.66;126655;1095;62680;-76
2021/08/12 03:46:55;;;;;;;12.67;5.83;;;;;;;17.48;73.78;97465.03;127030;1095;62691;-76
2021/08/12 03:49:42;;;;;;;9.97;5.23;;;;;;;17.47;73.96;97460.69;126978;1095;62715;-78
2021/08/12 03:52:09;;;;;;;13.23;6.10;;;;;;;17.47;73.78;97460.69;127033;1095;62604;-78
2021/08/12 03:54:36;;;;;;;10.00;6.03;;;;;;;17.45;73.81;97463.20;126959;1095;62555;-74
2021/08/12 03:57:04;;;;;;;10.00;6.30;;;;;;;17.42;73.87;97469.78;126946;1095;62674;-71
2021/08/12 03:59:31;;;;;;;8.93;5.90;;;;;;;17.44;73.96;97467.26;126975;1095;62680;-80
2021/08/12 04:01:58;;;;;;;7.67;5.73;;;;;;;17.44;73.89;97478.45;126980;1095;62623;-76
2021/08/12 04:04:29;;;;;;;13.20;6.53;;;;;;;17.43;74.05;97476.91;127013;1094;62604;-77
2021/08/12 04:06:56;;;;;;;9.85;6.50;;;;;;;17.46;73.87;97475.94;127121;1095;62592;-84
2021/08/12 04:09:23;;;;;;;9.53;6.33;;;;;;;17.47;74.04;97478.25;127013;1095;62559;-77
2021/08/12 04:11:50;;;;;;;8.77;5.83;;;;;;;17.47;73.86;97472.66;126950;1095;62610;-87
2021/08/12 04:14:17;;;;;;;10.07;6.00;;;;;;;17.53;73.97;97487.50;127129;1095;62619;-84
2021/08/12 04:16:43;;;;;;;11.63;6.57;;;;;;;17.56;73.52;97482.95;126980;1095;62585;-80
2021/08/12 04:19:12;;;;;;;8.80;6.40;;;;;;;17.61;73.48;97487.89;127012;1095;62620;-77
2021/08/12 04:21:39;;;;;;;8.70;5.63;;;;;;;17.67;73.49;97485.16;126588;1095;62616;-75
2021/08/12 04:24:06;;;;;;;10.23;6.20;;;;;;;17.72;73.21;97482.45;126907;1095;62719;-77
2021/08/12 04:26:33;;;;;;;11.27;6.73;;;;;;;17.78;72.77;97488.93;126932;1095;62612;-78
2021/08/12 04:29:00;;;;;;;12.47;6.63;;;;;;;17.83;72.48;97489.49;126820;1095;62664;-83
2021/08/12 04:31:27;;;;;;;8.30;5.40;;;;;;;17.94;72.08;97489.63;126949;1095;62636;-81
2021/08/12 04:33:54;;;;;;;9.67;6.10;;;;;;;18.01;71.92;97497.64;126983;1095;62607;-82
2021/08/12 04:36:21;;;;;;;13.23;5.50;;;;;;;18.08;71.44;97500.78;127179;1095;62607;-71
2021/08/12 04:38:47;;;;;;;11.27;5.80;;;;;;;18.17;71.27;97497.09;126723;1095;62578;-85
2021/08/12 04:41:15;;;;;;;9.33;6.23;;;;;;;18.25;70.92;97498.20;126905;1095;62572;-65
2021/08/12 04:43:42;;;;;;;10.07;5.70;;;;;;;18.35;70.63;97494.01;126622;1095;62575;-82
2021/08/12 04:46:09;;;;;;;10.53;6.03;;;;;;;18.46;70.59;97490.55;127263;1095;62556;-69
2021/08/12 04:48:36;;;;;;;9.40;6.10;;;;;;;18.60;70.17;97502.95;127397;1095;62642;-76
2021/08/12 04:51:03;;;;;;;8.07;5.63;;;;;;;18.71;69.48;97494.70;126715;1095;62734;-68
2021/08/12 04:54:09;;;;;;;12.03;5.57;;;;;;;18.80;69.22;97497.33;127062;1095;63002;-70
2021/08/12 04:56:56;;;;;;;9.43;5.50;;;;;;;18.97;69.08;97498.27;127029;1095;62671;-69
2021/08/12 04:59:23;;;;;;;7.00;5.13;;;;;;;19.07;68.79;97506.54;126976;1095;62632;-76
2021/08/12 05:01:53;;;;;;;9.73;5.50;;;;;;;19.20;68.45;97504.09;127035;1095;62607;-77
2021/08/12 05:04:20;;;;;;;12.37;5.87;;;;;;;19.28;68.11;97508.00;127024;1095;62743;-70
2021/08/12 05:06:47;;;;;;;12.93;5.77;;;;;;;19.34;67.82;97511.63;127106;1095;62632;-79
2021/08/12 05:09:14;;;;;;;14.63;6.20;;;;;;;19.38;67.86;97503.73;126890;1095;62709;-83
2021/08/12 05:11:42;;;;;;;12.53;6.20;;;;;;;19.46;67.80;97498.45;127095;1095;62611;-77
2021/08/12 05:14:09;;;;;;;9.37;6.13;;;;;;;19.55;67.43;97509.52;126662;1095;62687;-67
2021/08/12 05:16:36;;;;;;;11.05;6.10;;;;;;;19.61;66.94;97505.50;127072;1095;62963;-74
2021/08/12 05:19:02;;;;;;;14.07;6.07;;;;;;;19.67;66.86;97513.19;126928;1095;62691;-71
2021/08/12 05:21:29;;;;;;;8.97;5.97;;;;;;;19.77;66.53;97511.74;126901;1095;62620;-65
2021/08/12 05:23:56;;;;;;;11.40;5.63;;;;;;;19.86;66.24;97511.53;126883;1095;62559;-74
2021/08/12 05:26:23;;;;;;;15.27;5.53;;;;;;;19.92;66.42;97513.09;126897;1095;62585;-66
2021/08/12 05:28:50;;;;;;;10.60;6.53;;;;;;;20.01;66.11;97520.57;126613;1095;62552;-67
2021/08/12 05:31:17;;;;;;;10.80;5.85;;;;;;;20.11;65.90;97529.59;126899;1095;62594;-78
2021/08/12 05:33:44;;;;;;;10.40;6.43;;;;;;;20.17;65.53;97528.34;126873;1095;62614;-80
2021/08/12 05:36:11;;;;;;;9.80;5.53;;;;;;;20.27;65.27;97533.73;126903;1095;62592;-79
2021/08/12 05:38:38;;;;;;;10.53;6.43;;;;;;;20.32;65.09;97535.83;127074;1095;62710;-68
2021/08/12 05:41:05;;;;;;;9.00;5.97;;;;;;;20.40;65.15;97539.69;127121;1095;62607;-66
2021/08/12 05:43:32;;;;;;;13.03;6.27;;;;;;;20.48;64.61;97540.80;126873;1095;62620;-71
2021/08/12 05:45:59;;;;;;;13.27;5.70;;;;;;;20.53;64.35;97540.04;126942;1094;62592;-67
2021/08/12 05:48:26;;;;;;;11.27;6.23;;;;;;;20.59;64.53;97529.56;126919;1095;62603;-87
2021/08/12 05:50:53;;;;;;;12.20;6.17;;;;;;;20.66;64.69;97545.98;126956;1095;62684;-78
2021/08/12 05:53:20;;;;;;;10.80;5.63;;;;;;;20.76;64.47;97544.47;127094;1094;62559;-73
2021/08/12 05:55:47;;;;;;;15.20;6.07;;;;;;;20.88;64.36;97538.89;126778;1095;62613;-67
2021/08/12 05:58:14;;;;;;;10.60;5.93;;;;;;;20.98;63.72;97545.80;127205;1095;62537;-84
2021/08/12 06:00:41;;;;;;;15.80;6.37;;;;;;;21.07;63.62;97554.03;127128;1095;62623;-87
2021/08/12 06:03:12;;;;;;;7.97;5.27;;;;;;;21.13;63.17;97549.17;127211;1095;62661;-88
2021/08/12 06:05:39;;;;;;;14.07;6.57;;;;;;;21.17;63.17;97546.87;126911;1095;62716;-78
2021/08/12 06:08:08;;;;;;;8.87;6.10;;;;;;;21.22;62.54;97562.26;127116;1095;62563;-79
2021/08/12 06:10:35;;;;;;;15.47;6.97;;;;;;;21.26;62.54;97557.94;127055;1095;62617;-77
2021/08/12 06:13:02;;;;;;;19.43;6.00;;;;;;;21.29;62.11;97562.55;126744;1095;62689;-77
2021/08/12 06:15:29;;;;;;;13.47;6.57;;;;;;;21.35;61.71;97571.76;127079;1095;62662;-75
2021/08/12 06:17:56;;;;;;;13.00;6.70;;;;;;;21.36;61.80;97567.69;126914;1095;62579;-79
2021/08/12 06:20:23;;;;;;;13.93;6.50;;;;;;;21.36;61.18;97578.95;126924;1095;62559;-75
2021/08/12 06:22:52;;;;;;;15.43;7.27;;;;;;;21.38;61.00;97570.77;127075;1095;62615;-80
2021/08/12 06:25:21;;;;;;;12.93;7.40;;;;;;;21.40;61.35;97578.70;127078;1095;62607;-78
2021/08/12 06:27:48;;;;;;;17.17;7.73;;;;;;;21.46;61.05;97581.52;126923;1095;62559;-67
2021/08/12 06:30:15;;;;;;;14.00;6.73;;;;;;;21.50;60.40;97582.80;127082;1095;62729;-69
2021/08/12 06:32:42;;;;;;;14.83;7.57;;;;;;;21.51;60.40;97580.75;127069;1095;62592;-76
2021/08/12 06:35:11;;;;;;;11.60;6.27;;;;;;;21.59;60.29;97584.61;126807;1095;62617;-84
2021/08/12 06:37:50;;;;;;;10.93;6.85;;;;;;;21.69;60.18;97583.06;126888;1095;62876;-77
2021/08/12 06:40:20;;;;;;;15.80;6.43;;;;;;;21.80;59.40;97583.07;127056;1095;63064;-74
2021/08/12 06:42:48;;;;;;;13.17;6.40;;;;;;;21.94;59.09;97578.46;127081;1095;62619;-80
2021/08/12 06:45:15;;;;;;;11.10;6.10;;;;;;;22.09;59.36;97586.68;126661;1094;62983;-77
2021/08/12 06:47:43;;;;;;;13.60;6.40;;;;;;;22.25;58.90;97588.68;126907;1095;62623;-78
2021/08/12 06:50:10;;;;;;;14.17;6.47;;;;;;;22.37;58.17;97587.38;127014;1095;62556;-77
2021/08/12 06:52:37;;;;;;;13.53;6.13;;;;;;;22.48;57.67;97586.59;126748;1095;62606;-84
2021/08/12 06:55:06;;;;;;;9.83;5.07;;;;;;;22.56;55.95;97594.00;127306;1092;63036;-79
2021/08/12 06:57:33;;;;;;;11.10;6.10;;;;;;;22.66;56.54;97594.49;126822;1095;62690;-81
2021/08/12 07:00:00;;;;;;;9.13;5.80;;;;;;;22.75;55.11;97582.90;126856;1095;62837;-83
2021/08/12 07:02:26;;;;;;;13.67;7.13;;;;;;;22.80;55.01;97582.13;126912;1095;62575;-80
2021/08/12 07:04:53;;;;;;;17.13;7.33;;;;;;;22.89;55.74;97586.73;126973;1095;62651;-88
2021/08/12 07:07:20;;;;;;;12.07;5.93;;;;;;;23.01;53.32;97584.63;126993;1095;62549;-76
2021/08/12 07:09:47;;;;;;;11.27;5.50;;;;;;;23.03;53.09;97588.46;126926;1095;62629;-75
2021/08/12 07:12:15;;;;;;;7.33;4.43;;;;;;;23.07;52.02;97588.95;126892;1095;62588;-75
2021/08/12 07:14:42;;;;;;;10.97;5.10;;;;;;;23.09;52.44;97597.66;126918;1095;62643;-74
2021/08/12 07:17:09;;;;;;;9.17;5.53;;;;;;;23.12;52.34;97590.20;126737;1095;62691;-77
2021/08/12 07:19:36;;;;;;;10.73;6.40;;;;;;;23.18;52.01;97593.78;126866;1095;62705;-75
2021/08/12 07:22:03;;;;;;;9.33;5.67;;;;;;;23.24;51.75;97600.16;126956;1095;62620;-76
2021/08/12 07:24:30;;;;;;;10.67;6.10;;;;;;;23.28;51.58;97597.05;126873;1095;62629;-74
2021/08/12 07:26:57;;;;;;;8.33;5.40;;;;;;;23.36;51.42;97603.70;126935;1095;63054;-79
2021/08/12 07:29:44;;;;;;;11.63;5.00;;;;;;;23.45;51.45;97606.19;126899;1095;62619;-94
2021/08/12 07:32:11;;;;;;;8.13;4.90;;;;;;;23.57;51.21;97607.69;126738;1095;62668;-87
2021/08/12 07:34:38;;;;;;;11.43;5.10;;;;;;;23.68;51.24;97607.59;126629;1095;62623;-82
2021/08/12 07:37:05;;;;;;;9.33;6.00;;;;;;;23.83;51.38;97612.12;126920;1095;62647;-82
2021/08/12 07:39:32;;;;;;;10.27;4.90;;;;;;;24.00;50.11;97609.92;126922;1095;62668;-76
2021/08/12 07:41:59;;;;;;;8.00;4.20;;;;;;;24.09;48.98;97612.42;126975;1095;62619;-69
2021/08/12 07:44:27;;;;;;;7.93;4.53;;;;;;;24.17;48.65;97621.09;126891;1095;62622;-77
2021/08/12 07:46:54;;;;;;;8.77;4.93;;;;;;;24.24;48.40;97617.70;126868;1095;62693;-79
2021/08/12 07:49:21;;;;;;;7.43;4.70;;;;;;;24.38;48.94;97622.20;126582;1095;62632;-85
2021/08/12 07:51:48;;;;;;;9.07;4.43;;;;;;;24.55;48.00;97630.52;126971;1095;63073;-79
2021/08/12 07:54:15;;;;;;;8.87;4.83;;;;;;;24.69;47.43;97626.51;126921;1095;63586;-78
2021/08/12 07:56:42;;;;;;;8.07;4.33;;;;;;;24.90;47.90;97638.11;126617;1095;62777;-77
2021/08/12 07:59:09;;;;;;;7.23;4.80;;;;;;;25.09;46.60;97641.00;126955;1095;62578;-75
2021/08/12 08:01:37;;;;;;;10.20;4.60;;;;;;;25.29;47.24;97634.81;127016;1095;62619;-75
2021/08/12 08:04:04;;;;;;;8.03;4.30;;;;;;;25.53;48.13;97636.81;127067;1095;62620;-80
2021/08/12 08:06:31;;;;;;;10.17;5.13;;;;;;;25.59;44.83;97632.59;126710;1095;62642;-77
2021/08/12 08:08:58;;;;;;;7.77;4.87;;;;;;;25.58;44.72;97638.80;126961;1095;62738;-75
2021/08/12 08:11:25;;;;;;;7.80;4.70;;;;;;;25.57;45.42;97640.87;126953;1095;62613;-77
2021/08/12 08:13:52;;;;;;;7.83;4.97;;;;;;;25.59;44.50;97643.92;126936;1095;62628;-82
2021/08/12 08:16:21;;;;;;;11.45;5.10;;;;;;;25.55;44.35;97640.64;126924;1095;62639;-77
2021/08/12 08:18:49;;;;;;;7.18;4.50;;;;;;;25.50;45.61;97635.83;126912;1095;62628;-75
2021/08/12 08:21:16;;;;;;;7.27;4.87;;;;;;;25.43;44.19;97632.83;126673;1095;62753;-76
2021/08/12 08:23:43;;;;;;;8.97;4.80;;;;;;;25.32;45.21;97633.77;126929;1095;62592;-78
2021/08/12 08:26:10;;;;;;;10.37;4.57;;;;;;;25.27;45.10;97631.75;126913;1095;62611;-77
2021/08/12 08:28:37;;;;;;;8.40;4.85;;;;;;;25.27;45.53;97631.75;126906;1095;62618;-77
2021/08/12 08:31:04;;;;;;;9.27;5.03;;;;;;;25.26;45.34;97635.88;126912;1095;62613;-77
2021/08/12 08:33:35;;;;;;;7.03;4.60;;;;;;;25.27;46.53;97637.41;126936;1095;63009;-78
2021/08/12 08:36:11;;;;;;;8.27;5.20;;;;;;;25.28;46.37;97634.05;126885;1095;62639;-79
2021/08/12 08:38:42;;;;;;;9.10;4.78;;;;;;;25.32;46.41;97638.66;126938;1095;62626;-78
2021/08/12 08:41:09;;;;;;;8.73;5.00;;;;;;;25.27;44.88;97637.41;126943;1095;62623;-74
2021/08/12 08:43:36;;;;;;;7.63;4.27;;;;;;;25.23;44.46;97636.95;126859;1095;62959;-72
2021/08/12 08:46:03;;;;;;;8.00;5.00;;;;;;;25.20;44.49;97626.70;126643;1095;62722;-86
2021/08/12 08:48:33;;;;;;;8.55;4.80;;;;;;;25.15;44.74;97630.38;126939;1095;62626;-69
2021/08/12 08:51:02;;;;;;;6.77;4.60;;;;;;;25.12;44.76;97631.42;126917;1095;62677;-71
2021/08/12 08:53:30;;;;;;;7.40;4.87;;;;;;;25.12;44.84;97631.42;127010;1095;62623;-71
2021/08/12 08:55:57;;;;;;;8.13;4.80;;;;;;;25.13;44.40;97632.95;126889;1095;62623;-74
2021/08/12 08:58:24;;;;;;;7.30;4.67;;;;;;;25.16;45.12;97637.58;126985;1095;62713;-81
2021/08/12 09:00:52;;;;;;;7.90;4.90;;;;;;;25.22;44.97;97629.77;126989;1095;62623;-73
2021/08/12 09:03:19;;;;;;;8.30;4.70;;;;;;;25.33;45.45;97640.95;126897;1095;62639;-73
2021/08/12 09:05:46;;;;;;;9.03;4.83;;;;;;;25.41;44.16;97636.20;126951;1095;62623;-66
2021/08/12 09:08:13;;;;;;;8.77;4.23;;;;;;;25.46;43.28;97632.52;126965;1095;62680;-74
2021/08/12 09:10:41;;;;;;;7.07;4.57;;;;;;;25.51;42.71;97628.85;126966;1095;62805;-74
2021/08/12 09:13:08;;;;;;;9.07;4.50;;;;;;;25.54;42.60;97641.95;126969;1094;62608;-80
2021/08/12 09:15:40;;;;;;;6.37;4.17;;;;;;;25.65;43.16;97632.50;126884;1095;62662;-82
2021/08/12 09:18:21;;;;;;;7.60;4.80;;;;;;;25.73;43.51;97644.03;126943;1095;62623;-81
2021/08/12 09:20:49;;;;;;;9.70;4.40;;;;;;;25.79;41.38;97636.95;126981;1095;62771;-82
2021/08/12 09:23:24;;;;;;;7.53;4.10;;;;;;;25.84;41.41;97641.00;126992;1095;62642;-77
2021/08/12 09:26:19;;;;;;;10.50;4.13;;;;;;;25.85;41.65;97639.70;126970;1095;62608;-79
2021/08/12 09:29:06;;;;;;;8.67;4.43;;;;;;;25.92;42.02;97635.48;126960;1095;62619;-73
2021/08/12 09:31:34;;;;;;;8.97;4.80;;;;;;;26.01;41.81;97637.91;126630;1095;62645;-74
2021/08/12 09:34:21;;;;;;;9.50;4.47;;;;;;;26.07;40.45;97647.88;126593;1095;62623;-75
2021/08/12 09:36:49;;;;;;;5.80;4.35;;;;;;;26.13;40.43;97654.21;126946;1095;62780;-79
2021/08/12 09:39:22;;;;;;;6.47;4.23;;;;;;;26.23;40.95;97656.66;126638;1095;62644;-77
2021/08/12 09:41:53;;;;;;;6.63;4.43;;;;;;;26.36;39.94;97648.94;126962;1095;62642;-73
2021/08/12 09:44:59;;;;;;;7.77;4.33;;;;;;;26.57;39.92;97651.16;127131;1095;62670;-77
2021/08/12 09:47:30;;;;;;;9.50;4.77;;;;;;;27.27;39.44;97649.53;126847;1095;63095;-80
2021/08/12 09:49:59;;;;;;;7.60;4.73;;;;;;;28.80;37.27;97651.08;127072;1095;62575;-74
2021/08/12 09:52:33;;;;;;;9.03;4.77;;;;;;;30.30;34.00;97651.50;127061;1095;62626;-73
2021/08/12 09:55:21;;;;;;;8.83;4.03;;;;;;;31.67;31.70;97653.36;127050;1095;62630;-72
2021/08/12 09:57:49;;;;;;;5.40;3.30;;;;;;;32.90;28.73;97651.19;126996;1095;62625;-75
2021/08/12 10:00:31;;;;;;;6.07;3.43;;;;;;;33.64;25.58;97649.40;127089;1095;62629;-72
2021/08/12 10:03:38;;;;;;;6.80;3.20;;;;;;;34.81;24.89;97657.22;127022;1095;62604;-75
2021/08/12 10:06:45;;;;;;;5.90;3.85;;;;;;;36.26;22.65;97655.05;126984;1093;62692;-72
2021/08/12 10:09:16;;;;;;;8.90;3.80;;;;;;;37.32;23.51;97656.62;126851;1095;62556;-81
2021/08/12 10:11:43;;;;;;;7.47;4.33;;;;;;;38.40;22.78;97643.37;126758;1095;62635;-70
2021/08/12 10:14:10;;;;;;;6.87;4.17;;;;;;;39.21;21.96;97654.14;126780;1095;62645;-74
2021/08/12 10:16:38;;;;;;;6.67;4.17;;;;;;;39.88;20.79;97654.39;126981;1095;62789;-72
2021/08/12 10:19:25;;;;;;;5.60;3.57;;;;;;;40.00;19.72;97654.33;126985;1095;62719;-75
2021/08/12 10:21:53;;;;;;;6.95;3.65;;;;;;;39.97;18.08;97652.72;126824;1095;62654;-76
2021/08/12 10:24:19;;;;;;;8.17;3.43;;;;;;;39.68;17.70;97648.20;127048;1095;62607;-73
2021/08/12 10:26:46;;;;;;;7.93;3.77;;;;;;;39.68;19.13;97656.89;126732;1095;62597;-73
2021/08/12 10:29:18;;;;;;;5.15;3.45;;;;;;;40.28;19.24;97653.02;126665;1095;62677;-76
2021/08/12 10:31:46;;;;;;;7.30;3.60;;;;;;;41.13;19.25;97661.90;126830;1095;62698;-75
2021/08/12 10:34:33;;;;;;;7.13;4.17;;;;;;;41.07;18.24;97650.70;127085;1095;62642;-75
2021/08/12 10:37:20;;;;;;;17.80;3.87;;;;;;;41.90;18.67;97652.00;126621;1095;62700;-76
2021/08/12 10:39:47;;;;;;;6.10;3.40;;;;;;;42.86;17.76;97656.46;126704;1095;62635;-75
2021/08/12 10:42:17;;;;;;;5.83;2.85;;;;;;;43.08;15.74;97656.71;126615;1095;62807;-72
2021/08/12 10:44:44;;;;;;;5.38;3.03;;;;;;;43.01;14.90;97657.87;126919;1095;62713;-73
2021/08/12 10:47:37;;;;;;;4.67;3.07;;;;;;;43.27;15.78;97650.28;126754;1095;62725;-71
2021/08/12 10:50:23;;;;;;;4.30;2.70;;;;;;;43.86;14.79;97649.84;126765;1095;62626;-77
2021/08/12 10:53:15;;;;;;;6.40;3.25;;;;;;;43.92;15.48;97647.16;126972;1095;62636;-75
2021/08/12 10:56:02;;;;;;;7.33;3.30;;;;;;;44.00;15.08;97646.75;127000;1094;62623;-71
2021/08/12 10:58:35;;;;;;;6.38;3.20;;;;;;;42.71;14.84;97645.59;127043;1095;62766;-75
2021/08/12 11:01:09;;;;;;;6.48;4.18;;;;;;;42.64;15.77;97644.58;126665;1095;62681;-71
2021/08/12 11:03:47;;;;;;;7.13;3.50;;;;;;;43.16;15.79;97651.25;126991;1095;62674;-73
2021/08/12 11:06:22;;;;;;;8.85;3.10;;;;;;;43.38;15.51;97649.30;127011;1095;62700;-79
2021/08/12 11:09:09;;;;;;;7.55;3.20;;;;;;;42.01;16.30;97644.50;127069;1095;62626;-78
2021/08/12 11:11:50;;;;;;;5.85;3.05;;;;;;;41.23;16.85;97656.59;126833;1095;62594;-74
2021/08/12 11:14:44;;;;;;;6.03;3.70;;;;;;;40.14;17.58;97663.83;126720;1095;62575;-77
2021/08/12 11:17:10;;;;;;;4.85;3.00;;;;;;;40.51;17.42;97654.25;126868;1095;62618;-72
2021/08/12 11:19:38;;;;;;;5.75;3.75;;;;;;;40.58;17.71;97653.95;126962;1095;62611;-78
2021/08/12 11:22:25;;;;;;;7.05;3.43;;;;;;;40.16;17.07;97655.23;127042;1095;62619;-75
2021/08/12 11:24:52;;;;;;;10.30;3.25;;;;;;;40.39;17.04;97660.89;126981;1095;62611;-71
2021/08/12 11:27:35;;;;;;;4.98;3.18;;;;;;;40.75;17.48;97643.92;126953;1095;62591;-72
2021/08/12 11:30:50;;;;;;;6.27;3.70;;;;;;;41.29;17.22;97659.83;126813;1095;62636;-75
2021/08/12 11:33:27;;;;;;;6.50;3.30;;;;;;;42.28;16.63;97654.52;127012;1095;62693;-81
2021/08/12 11:36:13;;;;;;;5.50;3.10;;;;;;;43.04;15.98;97656.54;127101;1095;62601;-75
2021/08/12 11:38:46;;;;;;;4.58;2.85;;;;;;;43.57;15.38;97647.91;127789;1095;62600;-75
2021/08/12 11:41:14;;;;;;;4.93;3.10;;;;;;;43.62;15.04;97657.55;128535;1095;61133;-74
2021/08/12 11:43:41;;;;;;;4.65;3.10;;;;;;;43.54;14.71;97642.66;127048;1095;62623;-77